Time;durP1;ratioP1;P1;durP2;ratioP2;P2;SDS_P1;SDS_P2;PMS_P1;PMS_P2;Temp;Humidity;BMP_temperature;BMP_pressure;BME280_temperature;BME280_humidity;BME280_pressure;Samples;Min_cycle;Max_cycle;Signal;HPM_P1;HPM_P2
2022/05/23 00:01:36;;;;;;;9.43;5.22;;;;;;;;;;4957293;29;20058;-64
2022/05/23 00:04:04;;;;;;;9.68;5.00;;;;;;;;;;4957092;29;20043;-64
2022/05/23 00:06:31;;;;;;;9.45;5.30;;;;;;;;;;4956912;29;20043;-64
2022/05/23 00:08:59;;;;;;;9.98;4.68;;;;;;;;;;4939807;29;20040;-65
2022/05/23 00:11:26;;;;;;;8.75;4.95;;;;;;;;;;4956842;29;20067;-64
2022/05/23 00:13:54;;;;;;;6.53;4.65;;;;;;;;;;4956837;29;20043;-64
2022/05/23 00:16:24;;;;;;;8.50;4.68;;;;;;;;;;4939736;29;20442;-64
2022/05/23 00:18:51;;;;;;;7.03;4.35;;;;;;;;;;4956781;29;20039;-64
2022/05/23 00:21:19;;;;;;;6.68;4.70;;;;;;;;;;4956537;29;20054;-64
2022/05/23 00:23:47;;;;;;;6.72;4.07;;;;;;;;;;4956640;29;20102;-64
2022/05/23 00:26:17;;;;;;;8.18;4.50;;;;;;;;;;4956489;29;20054;-64
2022/05/23 00:28:44;;;;;;;8.57;4.50;;;;;;;;;;4956450;29;20083;-64
2022/05/23 00:31:12;;;;;;;7.78;4.40;;;;;;;;;;4939149;29;20039;-64
2022/05/23 00:36:30;;;;;;;8.73;4.57;;;;;;;;;;4956330;29;20054;-64
2022/05/23 00:38:57;;;;;;;8.73;4.32;;;;;;;;;;4939126;29;20056;-64
2022/05/23 00:44:16;;;;;;;7.90;4.85;;;;;;;;;;4939297;29;20047;-64
2022/05/23 00:46:54;;;;;;;6.13;4.38;;;;;;;;;;4937848;29;20043;-64
2022/05/23 00:49:27;;;;;;;10.75;4.47;;;;;;;;;;4956017;29;20054;-64
2022/05/23 00:51:55;;;;;;;7.63;4.30;;;;;;;;;;4956108;29;20057;-64
2022/05/23 00:54:23;;;;;;;10.70;4.22;;;;;;;;;;4956100;29;20047;-64
2022/05/23 00:56:53;;;;;;;6.57;4.32;;;;;;;;;;4938732;29;20540;-64
2022/05/23 00:59:26;;;;;;;6.85;4.10;;;;;;;;;;4923151;29;20362;-64
2022/05/23 01:01:54;;;;;;;5.68;3.65;;;;;;;;;;4938563;29;20081;-64
2022/05/23 01:04:34;;;;;;;8.02;3.70;;;;;;;;;;4938563;29;20101;-64
2022/05/23 01:07:01;;;;;;;7.57;4.00;;;;;;;;;;4955750;29;20122;-64
2022/05/23 01:09:29;;;;;;;4.72;3.50;;;;;;;;;;4938559;29;20043;-64
2022/05/23 01:11:59;;;;;;;7.63;3.65;;;;;;;;;;4938720;29;20047;-63
2022/05/23 01:14:27;;;;;;;5.88;3.08;;;;;;;;;;4938662;29;20102;-64
2022/05/23 01:16:54;;;;;;;4.07;2.65;;;;;;;;;;4938600;29;20055;-64
2022/05/23 01:19:22;;;;;;;5.40;3.10;;;;;;;;;;4938553;29;20128;-64
2022/05/23 01:21:58;;;;;;;7.15;3.40;;;;;;;;;;4938604;29;20043;-64
2022/05/23 01:24:48;;;;;;;5.95;3.47;;;;;;;;;;4938453;29;20490;-64
2022/05/23 01:27:17;;;;;;;6.15;2.97;;;;;;;;;;4938166;29;20059;-63
2022/05/23 01:29:46;;;;;;;6.07;3.50;;;;;;;;;;4938097;29;20079;-64
2022/05/23 01:32:14;;;;;;;6.57;3.70;;;;;;;;;;4938123;29;20569;-64
2022/05/23 01:34:45;;;;;;;6.05;3.40;;;;;;;;;;4938890;29;20062;-64
2022/05/23 01:37:17;;;;;;;5.63;3.03;;;;;;;;;;4938066;29;20047;-64
2022/05/23 01:40:04;;;;;;;7.30;3.92;;;;;;;;;;4940742;29;20118;-64
2022/05/23 01:42:38;;;;;;;5.10;3.10;;;;;;;;;;4937826;29;20052;-64
2022/05/23 01:45:06;;;;;;;6.55;3.00;;;;;;;;;;4937980;29;20039;-64
2022/05/23 01:47:33;;;;;;;7.07;3.17;;;;;;;;;;4937711;29;20047;-64
2022/05/23 01:50:01;;;;;;;4.95;3.10;;;;;;;;;;4937878;29;20054;-63
2022/05/23 01:52:40;;;;;;;7.43;3.47;;;;;;;;;;4937790;29;20039;-64
2022/05/23 01:55:21;;;;;;;6.07;3.35;;;;;;;;;;4937690;29;20138;-64
2022/05/23 02:01:12;;;;;;;4.00;2.90;;;;;;;;;;4941423;28;20138;-64
2022/05/23 02:01:15;;;;;;;6.43;3.30;;;;;;;;;;4937504;29;20561;-64
2022/05/23 02:03:55;;;;;;;4.85;3.67;;;;;;;;;;4937755;29;20109;-64
2022/05/23 02:06:25;;;;;;;8.25;3.83;;;;;;;;;;4937566;29;20043;-64
2022/05/23 02:08:58;;;;;;;5.30;3.72;;;;;;;;;;4937432;29;20142;-64
2022/05/23 02:11:32;;;;;;;8.30;3.67;;;;;;;;;;4954770;29;20046;-64
2022/05/23 02:13:59;;;;;;;6.05;4.05;;;;;;;;;;4937502;29;20114;-64
2022/05/23 02:16:36;;;;;;;5.10;3.58;;;;;;;;;;4937515;29;20074;-64
2022/05/23 02:19:04;;;;;;;7.65;3.95;;;;;;;;;;4937524;29;20051;-64
2022/05/23 02:21:31;;;;;;;7.45;4.05;;;;;;;;;;4921878;29;20408;-64
2022/05/23 02:24:00;;;;;;;5.35;4.00;;;;;;;;;;4937352;29;20074;-64
2022/05/23 02:26:29;;;;;;;7.63;3.95;;;;;;;;;;4937484;29;20444;-64
2022/05/23 02:28:59;;;;;;;7.03;3.95;;;;;;;;;;4937367;29;20062;-64
2022/05/23 02:31:30;;;;;;;7.25;4.05;;;;;;;;;;4937147;29;20044;-64
2022/05/23 02:34:10;;;;;;;8.35;4.22;;;;;;;;;;4937442;29;20047;-64
2022/05/23 02:36:51;;;;;;;6.55;3.95;;;;;;;;;;4937161;29;20390;-63
2022/05/23 02:39:25;;;;;;;7.95;5.15;;;;;;;;;;4937290;29;20047;-64
2022/05/23 02:41:53;;;;;;;8.55;4.93;;;;;;;;;;4937163;29;20047;-64
2022/05/23 02:44:24;;;;;;;9.07;5.22;;;;;;;;;;4937241;29;20039;-64
2022/05/23 02:46:51;;;;;;;10.05;6.18;;;;;;;;;;4954237;29;20043;-63
2022/05/23 02:49:23;;;;;;;9.85;7.00;;;;;;;;;;4937119;29;20186;-64
2022/05/23 02:51:53;;;;;;;9.95;7.25;;;;;;;;;;4936855;29;20146;-64
2022/05/23 02:54:25;;;;;;;11.73;7.18;;;;;;;;;;4937109;29;20075;-63
2022/05/23 02:56:59;;;;;;;9.23;6.85;;;;;;;;;;4937026;29;20051;-64
2022/05/23 02:59:27;;;;;;;10.63;6.28;;;;;;;;;;4937637;29;20396;-64
2022/05/23 03:04:54;;;;;;;8.60;5.40;;;;;;;;;;4954258;29;20043;-64
2022/05/23 03:07:22;;;;;;;11.68;6.25;;;;;;;;;;4936871;29;20070;-64
2022/05/23 03:10:01;;;;;;;9.60;6.38;;;;;;;;;;4938707;29;20047;-64
2022/05/23 03:12:29;;;;;;;8.27;4.32;;;;;;;;;;4940940;29;20054;-64
2022/05/23 03:14:58;;;;;;;6.68;4.10;;;;;;;;;;4958045;29;20074;-64
2022/05/23 03:17:26;;;;;;;9.65;4.93;;;;;;;;;;4940720;29;20490;-64
2022/05/23 03:19:53;;;;;;;12.02;4.63;;;;;;;;;;4957611;29;20501;-64
2022/05/23 03:28:02;;;;;;;9.25;4.63;;;;;;;;;;4911534;29;20412;-64
2022/05/23 03:30:31;;;;;;;13.02;5.78;;;;;;;;;;4940284;29;20071;-64
2022/05/23 03:32:59;;;;;;;11.82;4.82;;;;;;;;;;4940340;29;20047;-64
2022/05/23 03:35:27;;;;;;;8.70;4.93;;;;;;;;;;4940212;29;20051;-64
2022/05/23 03:37:55;;;;;;;9.52;4.15;;;;;;;;;;4939933;29;20043;-64
2022/05/23 03:40:23;;;;;;;5.82;4.00;;;;;;;;;;4939900;29;20050;-64
2022/05/23 03:42:56;;;;;;;9.15;3.70;;;;;;;;;;4939907;29;20055;-64
2022/05/23 03:45:25;;;;;;;7.55;3.25;;;;;;;;;;4939158;29;20043;-65
2022/05/23 03:47:54;;;;;;;5.57;2.90;;;;;;;;;;4939840;29;20047;-66
2022/05/23 03:50:23;;;;;;;4.93;3.10;;;;;;;;;;4939779;29;20047;-65
2022/05/23 03:52:53;;;;;;;3.17;2.50;;;;;;;;;;4938707;29;20063;-65
2022/05/23 03:55:25;;;;;;;4.82;2.30;;;;;;;;;;4938896;29;20047;-64
2022/05/23 03:58:11;;;;;;;9.40;2.72;;;;;;;;;;4957067;29;20183;-65
2022/05/23 04:00:43;;;;;;;5.68;2.85;;;;;;;;;;4939683;29;20055;-65
2022/05/23 04:03:12;;;;;;;3.38;2.53;;;;;;;;;;4939577;29;20071;-66
2022/05/23 04:05:43;;;;;;;6.78;2.75;;;;;;;;;;4956820;29;20114;-66
2022/05/23 04:08:18;;;;;;;4.32;2.80;;;;;;;;;;4939712;29;20051;-67
2022/05/23 04:10:51;;;;;;;3.55;2.70;;;;;;;;;;4939814;29;20163;-66
2022/05/23 04:13:18;;;;;;;5.55;2.80;;;;;;;;;;4939582;29;20079;-70
2022/05/23 04:15:46;;;;;;;8.27;3.25;;;;;;;;;;4939641;29;20049;-66
2022/05/23 04:18:14;;;;;;;3.10;2.33;;;;;;;;;;4939428;29;20059;-66
2022/05/23 04:20:43;;;;;;;5.68;2.72;;;;;;;;;;4939324;29;20408;-66
2022/05/23 04:23:16;;;;;;;3.80;2.30;;;;;;;;;;4939313;29;20130;-67
2022/05/23 04:25:47;;;;;;;8.23;2.50;;;;;;;;;;4939356;29;20134;-67
2022/05/23 04:28:17;;;;;;;6.88;2.60;;;;;;;;;;4956433;29;20055;-65
2022/05/23 04:30:45;;;;;;;3.47;2.50;;;;;;;;;;4956535;29;20047;-65
2022/05/23 04:36:04;;;;;;;6.28;3.30;;;;;;;;;;4939088;29;20070;-66
2022/05/23 04:38:40;;;;;;;4.18;2.45;;;;;;;;;;4939502;29;20414;-66
2022/05/23 04:41:08;;;;;;;5.65;2.50;;;;;;;;;;4939251;29;20669;-66
2022/05/23 04:43:50;;;;;;;4.63;2.22;;;;;;;;;;4938935;29;20090;-65
2022/05/23 04:46:23;;;;;;;6.18;2.47;;;;;;;;;;4938786;29;20057;-65
2022/05/23 04:51:53;;;;;;;4.45;1.90;;;;;;;;;;4938388;29;20086;-65
2022/05/23 04:54:26;;;;;;;6.45;2.83;;;;;;;;;;4936165;29;20047;-65
2022/05/23 04:56:59;;;;;;;6.47;3.38;;;;;;;;;;4931208;29;20134;-65
2022/05/23 04:59:32;;;;;;;7.35;4.30;;;;;;;;;;4923284;29;20103;-65
2022/05/23 05:02:01;;;;;;;11.40;3.90;;;;;;;;;;4938811;29;20043;-65
2022/05/23 05:04:29;;;;;;;7.35;2.63;;;;;;;;;;4938728;29;20040;-65
2022/05/23 05:06:58;;;;;;;5.35;2.33;;;;;;;;;;4938640;29;20051;-65
2022/05/23 05:09:25;;;;;;;3.30;2.10;;;;;;;;;;4939108;29;20039;-73
2022/05/23 05:12:02;;;;;;;2.50;1.90;;;;;;;;;;4938574;29;20047;-65
2022/05/23 05:14:34;;;;;;;5.40;2.97;;;;;;;;;;4938777;29;20044;-65
2022/05/23 05:17:05;;;;;;;12.38;7.07;;;;;;;;;;4938261;29;20105;-65
2022/05/23 05:19:34;;;;;;;6.93;4.10;;;;;;;;;;4922962;29;20099;-64
2022/05/23 05:22:22;;;;;;;5.25;1.90;;;;;;;;;;4906244;29;20116;-66
2022/05/23 05:25:22;;;;;;;3.55;2.00;;;;;;;;;;4937609;29;20098;-66
2022/05/23 05:27:56;;;;;;;2.17;1.73;;;;;;;;;;4937778;29;20055;-66
2022/05/23 05:30:24;;;;;;;1.88;1.60;;;;;;;;;;4938338;29;20039;-66
2022/05/23 05:33:06;;;;;;;7.25;1.83;;;;;;;;;;4937331;29;20047;-65
2022/05/23 05:35:39;;;;;;;1.55;1.45;;;;;;;;;;4937679;29;20043;-65
2022/05/23 05:38:10;;;;;;;5.90;1.70;;;;;;;;;;4955564;29;20101;-65
2022/05/23 05:40:38;;;;;;;11.70;2.75;;;;;;;;;;4955148;29;20043;-65
2022/05/23 05:43:15;;;;;;;7.72;2.60;;;;;;;;;;4937827;29;20505;-66
2022/05/23 05:45:45;;;;;;;6.55;2.55;;;;;;;;;;4922286;29;20054;-66
2022/05/23 05:48:27;;;;;;;3.95;1.95;;;;;;;;;;4938131;29;20051;-66
2022/05/23 05:50:55;;;;;;;4.07;1.85;;;;;;;;;;4922500;29;20053;-66
2022/05/23 05:53:28;;;;;;;3.00;2.00;;;;;;;;;;4937184;29;20505;-66
2022/05/23 05:55:59;;;;;;;6.68;2.05;;;;;;;;;;4937657;29;20063;-66
2022/05/23 05:58:28;;;;;;;4.93;1.70;;;;;;;;;;4937785;29;20094;-66
2022/05/23 06:00:57;;;;;;;1.70;1.50;;;;;;;;;;4937627;29;20047;-72
2022/05/23 06:03:28;;;;;;;5.78;2.20;;;;;;;;;;4937587;29;20587;-64
2022/05/23 06:11:41;;;;;;;4.22;1.63;;;;;;;;;;4918457;29;20071;-64
2022/05/23 06:14:17;;;;;;;2.20;1.80;;;;;;;;;;4918479;29;20412;-64
2022/05/23 06:16:59;;;;;;;4.63;1.90;;;;;;;;;;4934869;29;20047;-64
2022/05/23 06:19:44;;;;;;;2.88;1.45;;;;;;;;;;4937460;29;20079;-63
2022/05/23 06:22:23;;;;;;;2.50;1.83;;;;;;;;;;4927821;29;20123;-64
2022/05/23 06:25:02;;;;;;;1.98;1.77;;;;;;;;;;4937440;29;20047;-64
2022/05/23 06:27:30;;;;;;;2.88;1.85;;;;;;;;;;4933884;29;20098;-64
2022/05/23 06:30:20;;;;;;;5.07;3.00;;;;;;;;;;4934263;29;20062;-64
2022/05/23 06:32:53;;;;;;;3.88;2.30;;;;;;;;;;4935309;29;20039;-64
2022/05/23 06:35:34;;;;;;;2.25;1.98;;;;;;;;;;4933911;29;20513;-64
2022/05/23 06:38:01;;;;;;;2.60;1.75;;;;;;;;;;4935282;29;20044;-65
2022/05/23 06:40:41;;;;;;;3.30;1.60;;;;;;;;;;4935419;29;20494;-64
2022/05/23 06:43:27;;;;;;;3.97;1.70;;;;;;;;;;4935148;29;20058;-64
2022/05/23 06:46:33;;;;;;;2.08;1.58;;;;;;;;;;4918090;29;20051;-64
2022/05/23 06:49:01;;;;;;;3.92;2.15;;;;;;;;;;4917901;29;20056;-64
2022/05/23 06:51:49;;;;;;;2.67;1.90;;;;;;;;;;4930372;29;20044;-64
2022/05/23 06:54:20;;;;;;;4.47;1.73;;;;;;;;;;4938003;29;20090;-64
2022/05/23 06:57:00;;;;;;;1.98;1.60;;;;;;;;;;4937647;29;20079;-64
2022/05/23 06:59:28;;;;;;;4.45;1.90;;;;;;;;;;4937659;29;20067;-64
2022/05/23 07:01:58;;;;;;;4.15;2.10;;;;;;;;;;4937948;29;20455;-65
2022/05/23 07:12:19;;;;;;;3.10;1.50;;;;;;;;;;4939168;29;20454;-64
2022/05/23 07:12:57;;;;;;;3.85;1.70;;;;;;;;;;4937331;29;20050;-65
2022/05/23 07:15:27;;;;;;;3.13;1.50;;;;;;;;;;4937569;29;20079;-65
2022/05/23 07:17:55;;;;;;;3.20;1.75;;;;;;;;;;4937607;29;20047;-65
2022/05/23 07:20:34;;;;;;;1.90;1.58;;;;;;;;;;4937616;29;20514;-66
2022/05/23 07:23:17;;;;;;;3.97;1.88;;;;;;;;;;4937390;29;20070;-63
2022/05/23 07:25:50;;;;;;;2.20;1.40;;;;;;;;;;4937547;29;20047;-63
2022/05/23 07:28:37;;;;;;;2.17;1.42;;;;;;;;;;4952946;29;20065;-63
2022/05/23 07:31:04;;;;;;;3.53;2.10;;;;;;;;;;4957631;29;20077;-64
2022/05/23 07:33:33;;;;;;;4.32;2.72;;;;;;;;;;4940621;29;20055;-64
2022/05/23 07:36:01;;;;;;;6.50;3.10;;;;;;;;;;4940242;29;20039;-65
2022/05/23 07:38:30;;;;;;;6.18;1.88;;;;;;;;;;4940237;29;20058;-64
2022/05/23 07:41:01;;;;;;;3.25;1.77;;;;;;;;;;4940126;29;20587;-65
2022/05/23 07:43:36;;;;;;;5.75;2.40;;;;;;;;;;4940064;29;20075;-65
2022/05/23 07:46:09;;;;;;;10.70;2.50;;;;;;;;;;4940352;29;20043;-65
2022/05/23 07:48:39;;;;;;;3.53;1.70;;;;;;;;;;4940200;29;20520;-65
2022/05/23 07:51:09;;;;;;;5.32;3.10;;;;;;;;;;4939989;29;20453;-65
2022/05/23 08:02:06;;;;;;;;;;;;;;;;;;4940190;29;20415;-65
2022/05/23 08:04:34;;;;;;;13.38;7.53;;;;;;;;;;4939715;29;19986;-65
2022/05/23 08:07:04;;;;;;;7.28;3.08;;;;;;;;;;4939526;29;20066;-65
2022/05/23 08:09:32;;;;;;;6.70;2.50;;;;;;;;;;4923824;29;20130;-65
2022/05/23 08:12:04;;;;;;;5.32;2.10;;;;;;;;;;4939463;29;20593;-65
2022/05/23 08:14:33;;;;;;;6.75;1.92;;;;;;;;;;4939475;29;20054;-65
2022/05/23 08:17:04;;;;;;;3.53;2.00;;;;;;;;;;4939542;29;20066;-65
2022/05/23 08:19:36;;;;;;;2.97;1.85;;;;;;;;;;4939480;29;20090;-65
2022/05/23 08:22:19;;;;;;;3.17;1.85;;;;;;;;;;4925636;29;20043;-65
2022/05/23 08:24:53;;;;;;;6.53;2.08;;;;;;;;;;4939507;29;20497;-65
2022/05/23 08:27:21;;;;;;;3.47;2.20;;;;;;;;;;4939330;29;20138;-65
2022/05/23 08:29:49;;;;;;;6.63;5.28;;;;;;;;;;4939379;29;20409;-65
2022/05/23 08:32:17;;;;;;;5.93;4.30;;;;;;;;;;4939286;29;20130;-65
2022/05/23 08:34:54;;;;;;;7.30;3.47;;;;;;;;;;4939190;29;20572;-65
2022/05/23 08:37:21;;;;;;;3.88;2.00;;;;;;;;;;4939388;29;20039;-65
2022/05/23 08:39:49;;;;;;;4.25;1.80;;;;;;;;;;4939391;29;20043;-65
2022/05/23 08:42:24;;;;;;;4.13;1.98;;;;;;;;;;4923598;29;20458;-65
2022/05/23 08:45:31;;;;;;;6.55;2.53;;;;;;;;;;4926479;29;20572;-66
2022/05/23 08:48:14;;;;;;;2.60;1.80;;;;;;;;;;4938906;29;20457;-66
2022/05/23 08:50:55;;;;;;;4.35;2.65;;;;;;;;;;4938972;29;20058;-65
2022/05/23 08:53:27;;;;;;;4.78;2.90;;;;;;;;;;4938804;29;20497;-65
2022/05/23 08:56:36;;;;;;;5.43;2.13;;;;;;;;;;4878126;29;20060;-64
2022/05/23 08:59:25;;;;;;;5.45;2.10;;;;;;;;;;4862828;29;20045;-64
2022/05/23 09:01:56;;;;;;;4.68;2.10;;;;;;;;;;4912064;29;20461;-65
2022/05/23 09:04:30;;;;;;;6.38;2.15;;;;;;;;;;4938577;29;20051;-64
2022/05/23 09:07:00;;;;;;;4.28;1.90;;;;;;;;;;4937805;29;20147;-65
2022/05/23 09:09:31;;;;;;;5.38;2.20;;;;;;;;;;4955686;29;20134;-64
2022/05/23 09:12:03;;;;;;;3.75;1.70;;;;;;;;;;4955754;29;20488;-64
2022/05/23 09:14:31;;;;;;;4.22;2.35;;;;;;;;;;4955856;29;20512;-65
2022/05/23 09:16:59;;;;;;;4.57;2.20;;;;;;;;;;4955706;29;20039;-65
2022/05/23 09:19:31;;;;;;;5.93;1.90;;;;;;;;;;4955720;29;20099;-65
2022/05/23 09:22:14;;;;;;;5.60;2.00;;;;;;;;;;4955598;29;20138;-64
2022/05/23 09:24:54;;;;;;;8.20;2.42;;;;;;;;;;4955597;29;20047;-65
2022/05/23 09:27:21;;;;;;;22.10;3.55;;;;;;;;;;4955341;29;20061;-65
2022/05/23 09:29:53;;;;;;;3.15;2.50;;;;;;;;;;4955818;29;20098;-65
2022/05/23 09:32:25;;;;;;;6.72;2.53;;;;;;;;;;4955494;29;20049;-65
2022/05/23 09:35:00;;;;;;;4.05;2.35;;;;;;;;;;4955442;29;20110;-65
2022/05/23 09:37:37;;;;;;;3.97;2.13;;;;;;;;;;4955178;29;20039;-64
2022/05/23 09:40:09;;;;;;;11.73;9.15;;;;;;;;;;4955363;29;20043;-64
2022/05/23 09:48:20;;;;;;;3.50;2.03;;;;;;;;;;4955188;29;20046;-64
2022/05/23 09:50:54;;;;;;;9.77;2.13;;;;;;;;;;4955163;29;20050;-65
2022/05/23 09:53:21;;;;;;;6.20;2.40;;;;;;;;;;4954951;29;20109;-64
2022/05/23 09:55:49;;;;;;;5.82;1.67;;;;;;;;;;4937749;29;20286;-64
2022/05/23 09:58:25;;;;;;;4.93;1.70;;;;;;;;;;4955046;29;20255;-64
2022/05/23 10:00:58;;;;;;;6.55;1.95;;;;;;;;;;4955101;29;20078;-64
2022/05/23 10:03:27;;;;;;;5.53;2.70;;;;;;;;;;4938325;29;20097;-64
2022/05/23 10:06:03;;;;;;;3.53;2.10;;;;;;;;;;4937800;29;20169;-64
2022/05/23 10:08:36;;;;;;;4.68;1.90;;;;;;;;;;4955161;29;20055;-64
2022/05/23 10:11:20;;;;;;;3.58;2.00;;;;;;;;;;4937553;29;20047;-64
2022/05/23 10:13:54;;;;;;;6.07;2.10;;;;;;;;;;4937805;29;20556;-64
2022/05/23 10:16:26;;;;;;;3.88;1.92;;;;;;;;;;4954852;29;20134;-64
2022/05/23 10:19:03;;;;;;;4.05;1.92;;;;;;;;;;4954603;28;20059;-64
2022/05/23 10:21:35;;;;;;;6.20;2.25;;;;;;;;;;4954644;29;20106;-64
2022/05/23 10:24:16;;;;;;;8.43;3.23;;;;;;;;;;4937792;29;20043;-64
2022/05/23 10:26:54;;;;;;;6.53;2.10;;;;;;;;;;4954638;29;20098;-64
2022/05/23 10:29:24;;;;;;;9.20;2.10;;;;;;;;;;4954529;29;20119;-64
2022/05/23 10:31:54;;;;;;;2.55;1.70;;;;;;;;;;4954540;29;20045;-64
2022/05/23 10:34:31;;;;;;;3.63;2.38;;;;;;;;;;4954635;29;20043;-64
2022/05/23 10:37:02;;;;;;;4.60;1.95;;;;;;;;;;4937161;29;20055;-64
2022/05/23 10:42:16;;;;;;;4.93;2.08;;;;;;;;;;4954489;29;20043;-65
2022/05/23 10:44:46;;;;;;;4.15;2.10;;;;;;;;;;4954258;29;20074;-65
2022/05/23 10:47:23;;;;;;;2.10;1.85;;;;;;;;;;4954388;29;20047;-64
2022/05/23 10:50:00;;;;;;;6.68;3.33;;;;;;;;;;4954376;29;20056;-65
2022/05/23 10:52:37;;;;;;;3.45;1.83;;;;;;;;;;4954436;29;20040;-64
2022/05/23 10:55:09;;;;;;;6.15;2.33;;;;;;;;;;4954066;29;20075;-64
2022/05/23 10:57:37;;;;;;;4.55;2.70;;;;;;;;;;4954252;29;20044;-64
2022/05/23 11:00:07;;;;;;;6.22;2.05;;;;;;;;;;4954274;29;20094;-64
2022/05/23 11:02:43;;;;;;;2.83;1.90;;;;;;;;;;4954303;29;20498;-65
2022/05/23 11:05:20;;;;;;;5.78;1.98;;;;;;;;;;4937210;29;20098;-64
2022/05/23 11:08:10;;;;;;;3.55;1.83;;;;;;;;;;4954259;29;20043;-64
2022/05/23 11:10:56;;;;;;;2.97;1.83;;;;;;;;;;4954180;29;20039;-64
2022/05/23 11:13:42;;;;;;;6.70;1.80;;;;;;;;;;4954264;29;20556;-64
2022/05/23 11:16:16;;;;;;;5.80;1.73;;;;;;;;;;4954124;29;20066;-64
2022/05/23 11:18:54;;;;;;;4.63;1.70;;;;;;;;;;4937162;29;20061;-65
2022/05/23 11:21:28;;;;;;;2.47;1.80;;;;;;;;;;4953978;29;20087;-64
2022/05/23 11:24:03;;;;;;;4.40;1.90;;;;;;;;;;4936815;29;20137;-64
2022/05/23 11:26:34;;;;;;;3.00;1.63;;;;;;;;;;4953879;29;20493;-64
2022/05/23 11:34:51;;;;;;;1.92;1.50;;;;;;;;;;4940229;29;20509;-64
2022/05/23 11:40:01;;;;;;;4.55;2.28;;;;;;;;;;4957494;29;20069;-65
2022/05/23 11:42:38;;;;;;;3.60;2.10;;;;;;;;;;4940267;29;20050;-64
2022/05/23 11:45:57;;;;;;;4.72;2.00;;;;;;;;;;4924419;29;20071;-64
2022/05/23 11:47:57;;;;;;;7.65;3.58;;;;;;;;;;4957233;29;20119;-65
2022/05/23 11:50:29;;;;;;;6.45;1.70;;;;;;;;;;4940345;29;20046;-64
2022/05/23 11:53:06;;;;;;;3.08;1.80;;;;;;;;;;4957211;29;20063;-64
2022/05/23 11:55:53;;;;;;;2.65;1.77;;;;;;;;;;4957285;29;20505;-64
2022/05/23 11:58:26;;;;;;;4.13;1.77;;;;;;;;;;4957067;29;20058;-64
2022/05/23 12:01:00;;;;;;;2.75;1.60;;;;;;;;;;4939914;29;20513;-65
2022/05/23 12:03:51;;;;;;;2.58;1.63;;;;;;;;;;4956935;29;20040;-65
2022/05/23 12:06:35;;;;;;;3.60;1.50;;;;;;;;;;4956884;29;20102;-66
2022/05/23 12:09:17;;;;;;;3.30;1.40;;;;;;;;;;4957149;29;20090;-65
2022/05/23 12:11:51;;;;;;;3.15;1.42;;;;;;;;;;4940058;29;20442;-66
2022/05/23 12:14:21;;;;;;;3.30;2.13;;;;;;;;;;4956891;29;20046;-65
2022/05/23 12:17:05;;;;;;;2.70;1.50;;;;;;;;;;4956825;29;20074;-66
2022/05/23 12:19:39;;;;;;;2.00;1.52;;;;;;;;;;4956682;29;20090;-65
2022/05/23 12:22:21;;;;;;;6.83;1.80;;;;;;;;;;4956734;29;20445;-65
2022/05/23 12:25:07;;;;;;;3.60;1.90;;;;;;;;;;4939686;29;20098;-65
2022/05/23 12:27:37;;;;;;;4.43;1.80;;;;;;;;;;4956548;29;20132;-65
2022/05/23 12:30:14;;;;;;;2.60;2.03;;;;;;;;;;4939227;29;20493;-65
2022/05/23 12:32:48;;;;;;;2.40;1.80;;;;;;;;;;4956489;29;20059;-65
2022/05/23 12:35:17;;;;;;;3.10;1.50;;;;;;;;;;4956822;29;20051;-65
2022/05/23 12:37:49;;;;;;;3.85;1.70;;;;;;;;;;4956827;29;20047;-65
2022/05/23 12:40:23;;;;;;;2.92;1.70;;;;;;;;;;4956509;29;20073;-64
2022/05/23 12:42:50;;;;;;;4.07;1.60;;;;;;;;;;4956359;28;20051;-65
2022/05/23 12:45:42;;;;;;;2.90;1.40;;;;;;;;;;4939333;29;20047;-64
2022/05/23 12:48:10;;;;;;;2.92;1.42;;;;;;;;;;4956410;29;20039;-65
2022/05/23 12:54:24;;;;;;;5.07;1.67;;;;;;;;;;4956304;29;20078;-65
2022/05/23 12:56:52;;;;;;;2.20;1.50;;;;;;;;;;4956207;29;20094;-64
2022/05/23 12:59:38;;;;;;;7.05;1.85;;;;;;;;;;4956081;29;20790;-64
2022/05/23 13:02:08;;;;;;;1.83;1.60;;;;;;;;;;4956030;29;20122;-64
2022/05/23 13:04:40;;;;;;;1.42;1.30;;;;;;;;;;4955158;29;20098;-65
2022/05/23 13:07:11;;;;;;;2.88;1.60;;;;;;;;;;4937578;29;20051;-65
2022/05/23 13:09:44;;;;;;;3.38;1.75;;;;;;;;;;4955322;29;20501;-64
2022/05/23 13:12:28;;;;;;;2.20;1.58;;;;;;;;;;4955721;29;20091;-65
2022/05/23 13:14:59;;;;;;;2.35;1.73;;;;;;;;;;4954908;29;20043;-65
2022/05/23 13:17:31;;;;;;;2.63;1.58;;;;;;;;;;4954602;29;20123;-67
2022/05/23 13:22:44;;;;;;;3.05;1.80;;;;;;;;;;4955340;29;20039;-66
2022/05/23 13:25:12;;;;;;;3.65;1.83;;;;;;;;;;4954732;29;20408;-64
2022/05/23 13:27:50;;;;;;;1.52;1.42;;;;;;;;;;4954311;29;20051;-65
2022/05/23 13:30:17;;;;;;;4.35;1.83;;;;;;;;;;4954915;29;20055;-66
2022/05/23 13:32:45;;;;;;;4.13;1.80;;;;;;;;;;4955415;29;20047;-66
2022/05/23 13:35:18;;;;;;;3.88;1.77;;;;;;;;;;4955329;29;20094;-65
2022/05/23 13:37:46;;;;;;;3.07;2.20;;;;;;;;;;4955455;29;20504;-65
2022/05/23 13:40:34;;;;;;;6.03;2.40;;;;;;;;;;4954940;29;20515;-66
2022/05/23 13:43:12;;;;;;;4.63;3.08;;;;;;;;;;4955264;29;20115;-65
2022/05/23 13:45:42;;;;;;;3.08;2.10;;;;;;;;;;4955088;29;20043;-65
2022/05/23 13:48:19;;;;;;;3.47;2.20;;;;;;;;;;4955071;29;20279;-65
2022/05/23 13:50:53;;;;;;;10.75;6.80;;;;;;;;;;4944091;29;20040;-65
2022/05/23 13:53:30;;;;;;;17.98;12.80;;;;;;;;;;4935593;29;20115;-65
2022/05/23 13:55:58;;;;;;;7.55;4.95;;;;;;;;;;4919448;29;20058;-65
2022/05/23 13:58:28;;;;;;;5.90;2.80;;;;;;;;;;4935584;29;20045;-65
2022/05/23 14:01:02;;;;;;;6.57;2.50;;;;;;;;;;4935733;29;20122;-65
2022/05/23 14:03:33;;;;;;;4.30;2.15;;;;;;;;;;4935856;29;20051;-65
2022/05/23 14:06:02;;;;;;;8.35;6.00;;;;;;;;;;4918750;29;20054;-65
2022/05/23 14:08:36;;;;;;;10.65;7.10;;;;;;;;;;4935581;29;20048;-65
2022/05/23 14:11:07;;;;;;;8.27;2.90;;;;;;;;;;4935751;29;20054;-65
2022/05/23 14:13:35;;;;;;;8.73;4.07;;;;;;;;;;4935480;29;20414;-65
2022/05/23 14:16:04;;;;;;;4.20;2.45;;;;;;;;;;4935730;29;20039;-65
2022/05/23 14:18:33;;;;;;;2.75;2.28;;;;;;;;;;4935609;29;20050;-65
2022/05/23 14:21:01;;;;;;;5.18;2.38;;;;;;;;;;4935500;29;20078;-66
2022/05/23 14:23:31;;;;;;;2.78;1.83;;;;;;;;;;4935511;29;20082;-65
2022/05/23 14:26:06;;;;;;;4.45;1.80;;;;;;;;;;4935243;29;20063;-64
2022/05/23 14:28:45;;;;;;;4.38;2.10;;;;;;;;;;4935128;29;20067;-65
2022/05/23 14:31:28;;;;;;;3.78;2.00;;;;;;;;;;4935104;29;20054;-65
2022/05/23 14:33:59;;;;;;;6.80;4.00;;;;;;;;;;4952100;29;20035;-64
2022/05/23 14:36:27;;;;;;;6.22;3.45;;;;;;;;;;4954376;29;20036;-65
2022/05/23 14:38:55;;;;;;;6.53;4.32;;;;;;;;;;4954327;29;20042;-65
2022/05/23 14:41:27;;;;;;;12.77;8.52;;;;;;;;;;4954747;29;20067;-65
2022/05/23 14:44:04;;;;;;;4.75;2.10;;;;;;;;;;4936661;29;20048;-64
2022/05/23 14:46:33;;;;;;;3.45;2.38;;;;;;;;;;4954290;29;20051;-66
2022/05/23 14:49:05;;;;;;;3.85;1.40;;;;;;;;;;4954062;29;20545;-66
2022/05/23 14:51:40;;;;;;;3.70;1.90;;;;;;;;;;4954278;29;20122;-65
2022/05/23 14:56:55;;;;;;;5.07;2.13;;;;;;;;;;4954046;29;20047;-63
2022/05/23 15:02:17;;;;;;;4.65;2.90;;;;;;;;;;4954249;29;20043;-63
2022/05/23 15:04:48;;;;;;;5.63;2.30;;;;;;;;;;4953882;28;20092;-63
2022/05/23 15:07:17;;;;;;;3.45;1.60;;;;;;;;;;4957805;29;20070;-63
2022/05/23 15:09:45;;;;;;;3.15;1.75;;;;;;;;;;4957968;29;20386;-63
2022/05/23 15:12:18;;;;;;;5.25;2.30;;;;;;;;;;4957735;29;20039;-64
2022/05/23 15:14:46;;;;;;;3.45;1.83;;;;;;;;;;4957611;29;20102;-64
2022/05/23 15:17:15;;;;;;;3.95;1.70;;;;;;;;;;4957549;29;20069;-64
2022/05/23 15:19:43;;;;;;;3.15;1.70;;;;;;;;;;4924670;29;20106;-64
2022/05/23 15:22:15;;;;;;;3.92;1.88;;;;;;;;;;4954393;29;20043;-64
2022/05/23 15:24:43;;;;;;;3.90;2.20;;;;;;;;;;4938016;29;20046;-64
2022/05/23 15:27:20;;;;;;;6.65;4.53;;;;;;;;;;4942444;29;20142;-64
2022/05/23 15:29:48;;;;;;;3.37;2.10;;;;;;;;;;4954438;29;20039;-64
2022/05/23 15:32:16;;;;;;;2.80;1.48;;;;;;;;;;4956478;29;20284;-65
2022/05/23 15:34:45;;;;;;;3.15;2.20;;;;;;;;;;4956269;29;20070;-64
2022/05/23 15:37:15;;;;;;;2.35;1.70;;;;;;;;;;4956453;29;20035;-65
2022/05/23 15:39:43;;;;;;;4.05;1.60;;;;;;;;;;4956201;29;20058;-65
2022/05/23 15:42:13;;;;;;;5.95;1.85;;;;;;;;;;4956310;29;20421;-64
2022/05/23 15:44:42;;;;;;;7.03;2.63;;;;;;;;;;4956194;29;20051;-64
2022/05/23 15:47:12;;;;;;;4.10;1.95;;;;;;;;;;4955957;29;20062;-65
2022/05/23 15:49:41;;;;;;;6.35;2.70;;;;;;;;;;4956008;29;20071;-64
2022/05/23 15:52:09;;;;;;;4.35;2.40;;;;;;;;;;4939866;29;20536;-65
2022/05/23 15:54:44;;;;;;;3.22;2.20;;;;;;;;;;4956675;29;20074;-64
2022/05/23 15:57:13;;;;;;;4.45;1.60;;;;;;;;;;4939494;29;20043;-64
2022/05/23 15:59:43;;;;;;;4.47;2.50;;;;;;;;;;4956877;29;20047;-65
2022/05/23 16:02:11;;;;;;;7.53;3.65;;;;;;;;;;4956697;29;20076;-64
2022/05/23 16:04:40;;;;;;;9.52;5.22;;;;;;;;;;4955849;29;20039;-66
2022/05/23 16:07:08;;;;;;;8.60;4.55;;;;;;;;;;4956692;29;20127;-66
2022/05/23 16:09:36;;;;;;;3.83;2.28;;;;;;;;;;4956612;29;20043;-64
2022/05/23 16:12:04;;;;;;;4.05;2.13;;;;;;;;;;4955271;29;20047;-68
2022/05/23 16:14:32;;;;;;;4.07;1.75;;;;;;;;;;4939336;29;20146;-66
2022/05/23 16:17:05;;;;;;;4.05;2.25;;;;;;;;;;4956156;28;20039;-65
2022/05/23 16:19:38;;;;;;;3.90;1.95;;;;;;;;;;4956260;29;20484;-66
2022/05/23 16:22:09;;;;;;;7.55;2.15;;;;;;;;;;4955752;29;20035;-65
2022/05/23 16:24:36;;;;;;;4.72;1.80;;;;;;;;;;4955181;29;20047;-65
2022/05/23 16:27:24;;;;;;;5.72;1.85;;;;;;;;;;4956063;29;20065;-65